Time;durP1;ratioP1;P1;durP2;ratioP2;P2;SDS_P1;SDS_P2;PMS_P1;PMS_P2;Temp;Humidity;BMP_temperature;BMP_pressure;BME280_temperature;BME280_humidity;BME280_pressure;Samples;Min_cycle;Max_cycle;Signal;HPM_P1;HPM_P2
2023/08/09 00:00:41;;;;;;;4.60;3.13;;;15.30;99.90;;;;;;5033654;28;20200;-79
2023/08/09 00:03:07;;;;;;;4.37;2.80;;;15.30;99.90;;;;;;5035082;28;20646;-78
2023/08/09 00:05:33;;;;;;;6.93;3.53;;;15.30;99.90;;;;;;5035101;28;20172;-79
2023/08/09 00:07:59;;;;;;;5.43;3.60;;;15.20;99.90;;;;;;5036583;28;20225;-80
2023/08/09 00:10:26;;;;;;;6.40;4.20;;;15.30;99.90;;;;;;5036409;28;20211;-79
2023/08/09 00:12:51;;;;;;;5.67;4.13;;;15.30;99.90;;;;;;5037450;28;20168;-79
2023/08/09 00:15:18;;;;;;;4.77;3.10;;;15.30;99.90;;;;;;5037902;28;20186;-78
2023/08/09 00:17:43;;;;;;;2.53;1.90;;;15.30;99.90;;;;;;5036158;28;20171;-79
2023/08/09 00:20:11;;;;;;;2.47;1.50;;;15.20;99.90;;;;;;5037108;28;20179;-79
2023/08/09 00:22:37;;;;;;;3.00;1.40;;;15.20;99.90;;;;;;5035782;28;20288;-79
2023/08/09 00:25:03;;;;;;;2.33;1.80;;;15.10;99.90;;;;;;5037746;28;20177;-79
2023/08/09 00:27:29;;;;;;;1.57;1.10;;;15.20;99.90;;;;;;5033909;28;20275;-79
2023/08/09 00:29:55;;;;;;;2.07;1.40;;;15.10;99.90;;;;;;5033506;28;20219;-79
2023/08/09 00:32:20;;;;;;;1.77;1.17;;;15.10;99.90;;;;;;5033228;28;20176;-79
2023/08/09 00:34:46;;;;;;;1.03;0.90;;;15.00;99.90;;;;;;5034057;28;20652;-79
2023/08/09 00:37:11;;;;;;;1.60;1.00;;;14.90;99.90;;;;;;5034059;28;20176;-79
2023/08/09 00:39:37;;;;;;;4.90;1.43;;;14.90;99.90;;;;;;5034127;28;20210;-79
2023/08/09 00:42:03;;;;;;;3.00;1.20;;;14.90;99.90;;;;;;5032515;28;20196;-79
2023/08/09 00:44:28;;;;;;;3.50;1.27;;;14.80;99.90;;;;;;5034753;28;20180;-79
2023/08/09 00:46:54;;;;;;;3.20;1.30;;;14.90;99.90;;;;;;5034290;28;20549;-80
2023/08/09 00:49:20;;;;;;;3.50;1.30;;;14.90;99.90;;;;;;5033409;28;20594;-79
2023/08/09 00:51:46;;;;;;;2.23;1.30;;;14.90;99.90;;;;;;5032735;28;20192;-79
2023/08/09 00:54:12;;;;;;;2.13;1.10;;;14.80;99.90;;;;;;5033425;28;20184;-79
2023/08/09 00:56:38;;;;;;;1.93;1.37;;;14.80;99.90;;;;;;5033541;28;20172;-79
2023/08/09 00:59:04;;;;;;;1.37;1.20;;;14.80;99.90;;;;;;5035953;28;20215;-79
2023/08/09 01:01:29;;;;;;;2.40;1.40;;;14.80;99.90;;;;;;5035570;28;20196;-79
2023/08/09 01:03:55;;;;;;;1.43;1.13;;;14.90;99.90;;;;;;5033919;28;20259;-80
2023/08/09 01:06:40;;;;;;;2.33;1.30;;;14.80;99.90;;;;;;5035579;28;20319;-79
2023/08/09 01:09:11;;;;;;;1.50;1.10;;;14.80;99.90;;;;;;5035500;28;20736;-79
2023/08/09 01:11:48;;;;;;;1.60;1.40;;;14.70;99.90;;;;;;5036143;28;20254;-80
2023/08/09 01:14:16;;;;;;;2.83;1.40;;;14.70;99.90;;;;;;5036413;28;20160;-79
2023/08/09 01:16:44;;;;;;;5.27;1.43;;;14.80;99.90;;;;;;5035132;28;20659;-80
2023/08/09 01:19:44;;;;;;;1.70;1.60;;;14.70;99.90;;;;;;5038802;28;20195;-79
2023/08/09 01:22:31;;;;;;;2.17;1.60;;;14.80;99.90;;;;;;5036712;28;20200;-80
2023/08/09 01:25:02;;;;;;;3.03;1.67;;;14.80;99.90;;;;;;5039001;28;20180;-80
2023/08/09 01:27:29;;;;;;;3.70;1.87;;;14.70;99.90;;;;;;5039816;28;20153;-80
2023/08/09 01:29:56;;;;;;;4.27;2.20;;;14.70;99.90;;;;;;5039766;28;20582;-80
2023/08/09 01:32:24;;;;;;;4.40;2.30;;;14.70;99.90;;;;;;5039229;28;20218;-80
2023/08/09 01:34:50;;;;;;;3.83;2.17;;;14.70;99.90;;;;;;5039172;28;20598;-80
2023/08/09 01:37:26;;;;;;;5.47;2.20;;;14.80;99.90;;;;;;5037405;28;20208;-80
2023/08/09 01:39:54;;;;;;;5.53;2.30;;;14.70;99.90;;;;;;5034827;28;20176;-79
2023/08/09 01:42:20;;;;;;;4.03;2.77;;;14.90;99.90;;;;;;5033219;28;20269;-79
2023/08/09 01:44:46;;;;;;;5.30;2.13;;;14.80;99.90;;;;;;5033123;28;20719;-79
2023/08/09 01:47:13;;;;;;;4.50;2.33;;;14.80;99.90;;;;;;5032758;28;20180;-79
2023/08/09 01:49:47;;;;;;;3.20;2.20;;;14.80;99.90;;;;;;5034516;28;20573;-80
2023/08/09 01:52:14;;;;;;;8.97;2.53;;;14.80;99.90;;;;;;5032646;28;20201;-79
2023/08/09 01:54:40;;;;;;;2.50;2.00;;;14.80;99.90;;;;;;5036541;28;20191;-78
2023/08/09 01:57:05;;;;;;;3.17;1.93;;;14.80;99.90;;;;;;5038481;28;20203;-80
2023/08/09 01:59:31;;;;;;;4.20;2.20;;;14.80;99.90;;;;;;5038330;28;20184;-79
2023/08/09 02:01:56;;;;;;;4.10;2.10;;;14.80;99.90;;;;;;5038395;28;20694;-79
2023/08/09 02:04:23;;;;;;;2.80;2.03;;;14.80;99.90;;;;;;5038369;28;20172;-79
2023/08/09 02:06:48;;;;;;;1.87;1.53;;;14.70;99.90;;;;;;5038670;28;20701;-79
2023/08/09 02:09:14;;;;;;;4.73;2.00;;;14.60;99.90;;;;;;5042025;28;20207;-79
2023/08/09 02:11:40;;;;;;;2.80;1.60;;;14.70;99.90;;;;;;5052167;28;20223;-79
2023/08/09 02:14:05;;;;;;;7.53;2.03;;;14.70;99.90;;;;;;5049508;28;20210;-79
2023/08/09 02:16:31;;;;;;;2.90;1.80;;;14.70;99.90;;;;;;5038172;28;20254;-79
2023/08/09 02:18:56;;;;;;;2.87;1.80;;;14.80;99.90;;;;;;5036718;28;20230;-79
2023/08/09 02:21:22;;;;;;;6.87;2.00;;;14.70;99.90;;;;;;5036548;28;20199;-79
2023/08/09 02:23:48;;;;;;;4.33;2.20;;;14.70;99.90;;;;;;5037253;28;20173;-79
2023/08/09 02:26:15;;;;;;;5.20;2.10;;;14.70;99.90;;;;;;5035164;28;20180;-79
2023/08/09 02:28:41;;;;;;;5.47;2.10;;;14.70;99.90;;;;;;5035115;28;20199;-79
2023/08/09 02:31:08;;;;;;;7.40;1.97;;;14.70;99.90;;;;;;5035476;28;20242;-79
2023/08/09 02:33:34;;;;;;;3.47;2.23;;;14.70;99.90;;;;;;5036769;28;20165;-79
2023/08/09 02:36:02;;;;;;;3.67;2.00;;;14.60;99.90;;;;;;5036720;28;20169;-79
2023/08/09 02:38:28;;;;;;;6.70;2.53;;;14.60;99.90;;;;;;5035148;28;20181;-80
2023/08/09 02:40:55;;;;;;;3.47;2.07;;;14.60;99.90;;;;;;5037293;28;20214;-79
2023/08/09 02:43:23;;;;;;;2.83;1.87;;;14.60;99.90;;;;;;5036306;28;20188;-79
2023/08/09 02:45:50;;;;;;;5.80;2.33;;;14.60;99.90;;;;;;5046650;28;20187;-79
2023/08/09 02:48:16;;;;;;;7.93;2.60;;;14.60;99.90;;;;;;5054371;28;20643;-79
2023/08/09 02:50:42;;;;;;;3.97;2.13;;;14.60;99.90;;;;;;5054487;28;20229;-79
2023/08/09 02:53:08;;;;;;;3.50;2.50;;;14.60;99.90;;;;;;5055579;28;20322;-79
2023/08/09 02:55:34;;;;;;;5.33;2.67;;;14.60;99.90;;;;;;5054868;28;20294;-79
2023/08/09 02:58:03;;;;;;;6.23;2.83;;;14.60;99.90;;;;;;5055715;28;20224;-79
2023/08/09 03:00:32;;;;;;;3.47;2.27;;;14.60;99.90;;;;;;5055779;28;20289;-79
2023/08/09 03:02:58;;;;;;;4.73;2.30;;;14.60;99.90;;;;;;5055762;28;20191;-79
2023/08/09 03:05:24;;;;;;;9.03;2.60;;;14.60;99.90;;;;;;5053767;28;20649;-79
2023/08/09 03:07:49;;;;;;;11.67;2.47;;;14.60;99.90;;;;;;5056005;28;20180;-79
2023/08/09 03:10:15;;;;;;;5.63;2.23;;;14.60;99.90;;;;;;5053008;28;20223;-79
2023/08/09 03:12:41;;;;;;;4.03;1.90;;;14.60;99.90;;;;;;5055784;28;20195;-79
2023/08/09 03:15:07;;;;;;;3.13;2.20;;;14.50;99.90;;;;;;5053369;28;20606;-79
2023/08/09 03:17:32;;;;;;;4.90;2.13;;;14.50;99.90;;;;;;5055393;28;20171;-79
2023/08/09 03:19:58;;;;;;;3.13;1.80;;;14.50;99.90;;;;;;5054437;28;20186;-78
2023/08/09 03:22:24;;;;;;;3.97;1.70;;;14.50;99.90;;;;;;5055665;28;20650;-79
2023/08/09 03:24:50;;;;;;;6.33;1.87;;;14.50;99.90;;;;;;5052557;28;21015;-79
2023/08/09 03:27:16;;;;;;;3.70;1.47;;;14.50;99.90;;;;;;5053962;28;20547;-79
2023/08/09 03:29:42;;;;;;;2.20;1.20;;;14.40;99.90;;;;;;5053817;28;20218;-80
2023/08/09 03:32:08;;;;;;;6.90;2.53;;;14.40;99.90;;;;;;5055017;28;20599;-79
2023/08/09 03:34:34;;;;;;;3.60;1.90;;;14.40;99.90;;;;;;5053485;28;20183;-79
2023/08/09 03:37:00;;;;;;;3.67;1.60;;;14.40;99.90;;;;;;5035556;28;20179;-80
2023/08/09 03:39:26;;;;;;;1.97;1.73;;;14.40;99.90;;;;;;5035399;28;20176;-79
2023/08/09 03:41:51;;;;;;;5.40;1.80;;;14.40;99.90;;;;;;5035554;28;20254;-79
2023/08/09 03:44:17;;;;;;;4.03;1.80;;;14.40;99.90;;;;;;5035404;28;20698;-79
2023/08/09 03:46:43;;;;;;;9.80;2.60;;;14.40;99.90;;;;;;5035905;28;20188;-79
2023/08/09 03:49:08;;;;;;;5.03;1.90;;;14.40;99.90;;;;;;5035546;28;20682;-79
2023/08/09 03:51:34;;;;;;;6.10;2.03;;;14.40;99.90;;;;;;5035602;28;20196;-79
2023/08/09 03:54:00;;;;;;;4.00;1.70;;;14.40;99.90;;;;;;5034185;28;20239;-79
2023/08/09 03:56:26;;;;;;;2.80;1.93;;;14.40;99.90;;;;;;5047683;28;20234;-79
2023/08/09 03:58:52;;;;;;;2.63;1.97;;;14.40;99.90;;;;;;5050018;28;20229;-79
2023/08/09 04:01:17;;;;;;;4.30;2.10;;;14.40;99.90;;;;;;5034974;28;20196;-79
2023/08/09 04:03:43;;;;;;;4.13;2.10;;;14.40;99.90;;;;;;5034778;28;20176;-79
2023/08/09 04:06:13;;;;;;;2.63;1.80;;;14.40;99.90;;;;;;5048800;28;20315;-79
2023/08/09 04:08:39;;;;;;;3.30;2.20;;;14.40;99.90;;;;;;5034333;28;20263;-79
2023/08/09 04:11:05;;;;;;;3.33;2.40;;;14.50;99.90;;;;;;5034048;28;20203;-79
2023/08/09 04:13:30;;;;;;;3.27;2.10;;;14.40;99.90;;;;;;5034137;28;20180;-80
2023/08/09 04:15:56;;;;;;;13.07;2.90;;;14.40;99.90;;;;;;5047723;28;20237;-79
2023/08/09 04:18:22;;;;;;;2.87;2.30;;;14.40;99.90;;;;;;5055575;28;20167;-80
2023/08/09 04:20:49;;;;;;;5.43;2.30;;;14.40;99.90;;;;;;5056275;28;20286;-80
2023/08/09 04:23:15;;;;;;;6.20;2.27;;;14.40;99.90;;;;;;5057433;28;20171;-79
2023/08/09 04:25:41;;;;;;;3.23;2.40;;;14.40;99.90;;;;;;5055152;28;20238;-80
2023/08/09 04:28:08;;;;;;;2.53;1.90;;;14.40;99.90;;;;;;5059942;28;20183;-80
2023/08/09 04:30:35;;;;;;;8.93;2.47;;;14.40;99.90;;;;;;5074958;28;20207;-79
2023/08/09 04:33:03;;;;;;;8.17;2.80;;;14.40;99.90;;;;;;5069997;28;20652;-79
2023/08/09 04:35:30;;;;;;;11.17;2.73;;;14.40;99.90;;;;;;5052846;28;20717;-79
2023/08/09 04:37:55;;;;;;;4.33;2.83;;;14.40;99.90;;;;;;5038114;28;20195;-81
2023/08/09 04:40:21;;;;;;;3.63;2.60;;;14.40;99.90;;;;;;5036713;28;20274;-82
2023/08/09 04:42:47;;;;;;;7.47;2.73;;;14.40;99.90;;;;;;5038302;28;20177;-79
2023/08/09 04:45:13;;;;;;;6.57;3.20;;;14.40;99.90;;;;;;5040261;28;20176;-79
2023/08/09 04:47:39;;;;;;;10.27;3.40;;;14.40;99.90;;;;;;5041714;28;20186;-79
2023/08/09 04:50:06;;;;;;;5.47;3.17;;;14.40;99.90;;;;;;5040751;28;20235;-79
2023/08/09 04:52:34;;;;;;;9.30;2.90;;;14.30;99.90;;;;;;5040729;28;20176;-78
2023/08/09 04:55:00;;;;;;;3.07;2.77;;;14.30;99.90;;;;;;5045307;28;20183;-78
2023/08/09 04:57:26;;;;;;;5.83;2.83;;;14.30;99.90;;;;;;5059939;28;20228;-78
2023/08/09 04:59:51;;;;;;;8.20;3.10;;;14.30;99.90;;;;;;5061003;28;20242;-78
2023/08/09 05:02:17;;;;;;;5.63;3.73;;;14.30;99.90;;;;;;5060626;28;20280;-78
2023/08/09 05:04:43;;;;;;;4.70;3.40;;;14.30;99.90;;;;;;5059498;28;20188;-79
2023/08/09 05:07:08;;;;;;;5.53;3.30;;;14.30;99.90;;;;;;5041729;28;20190;-78
2023/08/09 05:09:34;;;;;;;5.60;3.20;;;14.20;99.90;;;;;;5040112;28;20211;-78
2023/08/09 05:12:00;;;;;;;5.67;3.47;;;14.10;99.90;;;;;;5040233;28;20235;-78
2023/08/09 05:14:26;;;;;;;4.70;3.23;;;14.10;99.90;;;;;;5040251;28;20177;-79
2023/08/09 05:16:52;;;;;;;9.63;3.50;;;14.10;99.90;;;;;;5039471;28;20738;-78
2023/08/09 05:19:18;;;;;;;5.73;3.67;;;14.10;99.90;;;;;;5041786;28;20547;-80
2023/08/09 05:21:44;;;;;;;7.50;4.00;;;14.10;99.90;;;;;;5042509;28;20260;-78
2023/08/09 05:24:10;;;;;;;5.90;3.27;;;14.10;99.90;;;;;;5039898;28;20613;-79
2023/08/09 05:26:35;;;;;;;4.30;3.80;;;14.00;99.90;;;;;;5042699;28;20661;-79
2023/08/09 05:29:01;;;;;;;7.10;4.07;;;14.00;99.90;;;;;;5044346;28;20200;-78
2023/08/09 05:31:27;;;;;;;7.43;3.73;;;14.00;99.90;;;;;;5047751;28;20219;-78
2023/08/09 05:33:53;;;;;;;7.27;3.43;;;13.90;99.90;;;;;;5046345;28;20184;-78
2023/08/09 05:36:19;;;;;;;6.10;3.90;;;14.00;99.90;;;;;;5060992;28;20519;-79
2023/08/09 05:38:44;;;;;;;6.17;3.57;;;14.00;99.90;;;;;;5067237;28;20179;-78
2023/08/09 05:41:10;;;;;;;6.80;3.53;;;13.90;99.90;;;;;;5067266;28;20199;-79
2023/08/09 05:43:35;;;;;;;5.57;3.77;;;14.00;99.90;;;;;;5066466;28;20199;-78
2023/08/09 05:46:02;;;;;;;5.10;4.40;;;14.00;99.90;;;;;;5063586;28;20187;-79
2023/08/09 05:48:27;;;;;;;7.17;3.90;;;14.00;99.90;;;;;;5068935;28;20223;-79
2023/08/09 05:50:53;;;;;;;6.03;4.40;;;14.00;99.90;;;;;;5066492;28;20207;-78
2023/08/09 05:53:19;;;;;;;5.87;4.87;;;14.10;99.90;;;;;;5066145;28;20554;-78
2023/08/09 05:55:44;;;;;;;5.73;4.30;;;14.10;99.90;;;;;;5055170;28;20191;-78
2023/08/09 05:58:10;;;;;;;7.43;5.03;;;14.10;99.90;;;;;;5066043;28;20182;-78
2023/08/09 06:00:37;;;;;;;5.63;5.10;;;14.20;99.90;;;;;;5064832;28;20547;-78
2023/08/09 06:03:03;;;;;;;6.60;4.97;;;14.10;99.90;;;;;;5064716;28;20187;-79
2023/08/09 06:05:29;;;;;;;9.13;5.23;;;14.30;99.90;;;;;;5058922;28;20195;-79
2023/08/09 06:07:55;;;;;;;7.37;5.30;;;14.30;99.90;;;;;;5065435;28;20194;-79
2023/08/09 06:10:22;;;;;;;16.53;13.07;;;14.40;99.90;;;;;;5066731;28;20215;-78
2023/08/09 06:12:49;;;;;;;14.10;12.13;;;14.40;99.90;;;;;;5066571;28;20168;-78
2023/08/09 06:15:15;;;;;;;12.43;10.93;;;14.40;99.90;;;;;;5063743;28;20255;-79
2023/08/09 06:17:41;;;;;;;15.80;10.70;;;14.40;99.90;;;;;;5067015;28;20176;-78
2023/08/09 06:20:07;;;;;;;14.10;8.80;;;14.50;99.90;;;;;;5067430;28;20553;-79
2023/08/09 06:22:33;;;;;;;9.53;8.50;;;14.50;99.90;;;;;;5067051;28;20180;-79
2023/08/09 06:24:59;;;;;;;10.13;9.00;;;14.50;99.90;;;;;;5067416;28;20201;-79
2023/08/09 06:27:24;;;;;;;16.03;12.77;;;14.60;99.90;;;;;;5068023;28;20183;-79
2023/08/09 06:29:50;;;;;;;18.90;14.37;;;14.60;99.90;;;;;;5067260;28;20207;-79
2023/08/09 06:32:16;;;;;;;23.43;18.80;;;14.70;99.90;;;;;;5068067;28;20194;-79
2023/08/09 06:34:42;;;;;;;26.57;19.70;;;14.70;99.90;;;;;;5065996;28;20213;-80
2023/08/09 06:37:08;;;;;;;28.37;22.17;;;14.80;99.90;;;;;;5069198;28;20209;-79
2023/08/09 06:39:36;;;;;;;36.00;25.77;;;14.80;99.90;;;;;;5067513;28;20179;-79
2023/08/09 06:42:01;;;;;;;32.73;25.60;;;14.90;99.90;;;;;;5067942;28;20219;-78
2023/08/09 06:44:27;;;;;;;34.97;25.23;;;14.90;99.90;;;;;;5067019;28;20179;-81
2023/08/09 06:46:56;;;;;;;38.23;26.57;;;15.00;99.90;;;;;;5064463;28;20195;-79
2023/08/09 06:49:22;;;;;;;36.47;27.20;;;15.00;99.90;;;;;;5066998;28;20203;-79
2023/08/09 06:51:48;;;;;;;37.17;27.53;;;15.00;99.90;;;;;;5067856;28;20285;-79
2023/08/09 06:54:14;;;;;;;34.50;26.80;;;15.00;99.90;;;;;;5065640;28;20254;-79
2023/08/09 06:56:39;;;;;;;37.60;27.50;;;15.00;99.90;;;;;;5063607;28;20233;-79
2023/08/09 06:59:05;;;;;;;38.27;27.87;;;15.00;99.90;;;;;;5067580;28;20168;-79
2023/08/09 07:01:31;;;;;;;40.40;28.00;;;15.00;99.90;;;;;;5067667;28;20191;-79
2023/08/09 07:03:57;;;;;;;37.77;28.67;;;14.90;99.90;;;;;;5066194;28;20167;-79
2023/08/09 07:06:23;;;;;;;41.37;27.87;;;14.90;99.90;;;;;;5062644;28;20212;-79
2023/08/09 07:08:53;;;;;;;39.17;27.93;;;15.00;99.90;;;;;;5066630;28;20258;-79
2023/08/09 07:11:22;;;;;;;32.83;24.33;;;15.00;99.90;;;;;;5067187;28;20203;-79
2023/08/09 07:13:47;;;;;;;33.00;23.63;;;15.00;99.90;;;;;;5066907;28;20194;-79
2023/08/09 07:16:13;;;;;;;30.43;22.17;;;15.00;99.90;;;;;;5062496;28;20187;-79
2023/08/09 07:18:38;;;;;;;30.07;21.90;;;15.00;99.90;;;;;;5066385;28;20184;-78
2023/08/09 07:21:04;;;;;;;30.60;22.73;;;15.20;99.90;;;;;;5064469;28;20249;-80
2023/08/09 07:23:30;;;;;;;30.37;22.07;;;15.10;99.90;;;;;;5065463;28;20270;-79
2023/08/09 07:25:56;;;;;;;31.13;23.47;;;15.20;99.90;;;;;;5062789;28;20187;-80
2023/08/09 07:28:21;;;;;;;36.07;24.20;;;15.30;99.90;;;;;;5065443;28;20195;-79
2023/08/09 07:30:50;;;;;;;37.47;27.13;;;15.40;99.90;;;;;;5065567;28;20294;-79
2023/08/09 07:33:16;;;;;;;36.47;26.10;;;15.50;99.90;;;;;;5056050;28;20188;-79
2023/08/09 07:35:41;;;;;;;33.90;25.53;;;15.30;99.90;;;;;;5055955;28;20188;-79
2023/08/09 07:38:07;;;;;;;34.53;24.57;;;15.50;99.90;;;;;;5065088;28;20194;-79
2023/08/09 07:40:33;;;;;;;32.60;24.20;;;15.40;99.90;;;;;;5063449;28;20203;-79
2023/08/09 07:43:00;;;;;;;31.97;25.37;;;15.40;99.90;;;;;;5059789;28;20286;-80
2023/08/09 07:45:25;;;;;;;29.50;22.70;;;15.50;99.90;;;;;;5054269;28;20214;-80
2023/08/09 07:47:51;;;;;;;30.73;22.33;;;15.50;99.90;;;;;;5065410;28;20179;-79
2023/08/09 07:50:16;;;;;;;32.37;22.33;;;15.60;99.90;;;;;;5064490;28;20244;-79
2023/08/09 07:52:42;;;;;;;31.90;22.17;;;15.60;99.90;;;;;;5064296;28;20192;-79
2023/08/09 07:55:08;;;;;;;36.80;24.83;;;15.60;99.90;;;;;;5056894;28;20176;-80
2023/08/09 07:57:34;;;;;;;36.07;25.20;;;15.40;99.90;;;;;;5060629;28;20180;-80
2023/08/09 08:00:05;;;;;;;35.63;26.67;;;15.40;99.90;;;;;;5044545;28;20231;-78
2023/08/09 08:02:31;;;;;;;36.53;25.60;;;15.40;99.90;;;;;;5045996;28;20186;-80
2023/08/09 08:04:56;;;;;;;38.40;25.90;;;15.40;99.90;;;;;;5049854;28;20266;-80
2023/08/09 08:07:23;;;;;;;38.83;26.93;;;15.40;99.90;;;;;;5063728;28;20203;-80
2023/08/09 08:09:49;;;;;;;41.43;26.60;;;15.40;99.90;;;;;;5064439;28;20659;-79
2023/08/09 08:12:15;;;;;;;42.70;25.50;;;15.40;99.90;;;;;;5063641;28;20207;-80
2023/08/09 08:14:40;;;;;;;33.97;23.80;;;15.40;99.90;;;;;;5053297;28;20571;-80
2023/08/09 08:17:06;;;;;;;36.50;24.63;;;15.40;99.90;;;;;;5045885;28;20224;-79
2023/08/09 08:19:31;;;;;;;39.90;25.77;;;15.40;99.90;;;;;;5044657;28;20206;-79
2023/08/09 08:21:57;;;;;;;44.37;25.63;;;15.50;99.90;;;;;;5045031;28;20196;-80
2023/08/09 08:24:23;;;;;;;43.43;26.37;;;15.40;99.90;;;;;;5048926;28;20176;-80
2023/08/09 08:26:53;;;;;;;40.60;26.77;;;15.40;99.90;;;;;;5046794;28;20172;-80
2023/08/09 08:29:19;;;;;;;39.40;24.67;;;15.60;99.90;;;;;;5060684;28;20208;-79
2023/08/09 08:31:44;;;;;;;32.80;20.83;;;15.60;99.90;;;;;;5060983;28;20330;-80
2023/08/09 08:34:10;;;;;;;28.60;18.27;;;15.60;99.90;;;;;;5063618;28;20256;-80
2023/08/09 08:36:35;;;;;;;32.93;18.07;;;15.60;99.90;;;;;;5064844;28;20263;-79
2023/08/09 08:39:05;;;;;;;30.77;18.03;;;15.70;99.90;;;;;;5064192;28;20191;-80
2023/08/09 08:41:31;;;;;;;27.87;18.30;;;15.80;99.90;;;;;;5065342;28;20270;-80
2023/08/09 08:43:56;;;;;;;30.10;19.67;;;15.80;99.90;;;;;;5062042;28;20524;-80
2023/08/09 08:46:26;;;;;;;28.40;19.87;;;15.90;99.90;;;;;;5045289;28;20176;-79
2023/08/09 08:48:53;;;;;;;33.47;20.57;;;15.90;99.90;;;;;;5046049;28;20179;-79
2023/08/09 08:51:19;;;;;;;33.20;20.80;;;15.90;99.90;;;;;;5044824;28;20215;-80
2023/08/09 08:53:45;;;;;;;34.77;21.73;;;16.00;99.90;;;;;;5047179;28;20180;-80
2023/08/09 08:56:11;;;;;;;28.93;19.80;;;16.10;99.90;;;;;;5065146;28;20172;-80
2023/08/09 08:58:38;;;;;;;34.53;20.23;;;16.30;99.90;;;;;;5065651;28;20218;-78
2023/08/09 09:01:03;;;;;;;26.90;17.47;;;16.30;99.90;;;;;;5065790;28;20254;-80
2023/08/09 09:03:29;;;;;;;26.20;17.73;;;16.30;99.90;;;;;;5068934;28;20257;-81
2023/08/09 09:05:54;;;;;;;26.87;16.97;;;16.30;99.90;;;;;;5069270;28;20222;-80
2023/08/09 09:08:20;;;;;;;22.90;14.00;;;16.30;99.90;;;;;;5071454;28;20171;-80
2023/08/09 09:10:48;;;;;;;20.27;13.97;;;16.30;99.90;;;;;;5070959;28;20211;-79
2023/08/09 09:13:27;;;;;;;20.37;14.37;;;16.40;99.90;;;;;;5068456;28;20619;-79
2023/08/09 09:15:54;;;;;;;20.17;12.83;;;16.50;99.90;;;;;;5066340;28;20195;-79
2023/08/09 09:18:21;;;;;;;18.80;11.53;;;16.70;99.90;;;;;;5070562;28;20240;-79
2023/08/09 09:20:46;;;;;;;17.17;9.70;;;16.80;99.90;;;;;;5067853;28;20211;-80
2023/08/09 09:23:25;;;;;;;16.57;12.10;;;16.80;99.90;;;;;;5068104;28;20186;-80
2023/08/09 09:26:05;;;;;;;17.57;12.47;;;16.90;99.90;;;;;;5067759;28;20187;-80
2023/08/09 09:28:38;;;;;;;17.27;12.47;;;16.90;99.90;;;;;;5069878;28;20266;-79
2023/08/09 09:31:04;;;;;;;18.17;13.37;;;17.00;99.90;;;;;;5069532;28;20214;-79
2023/08/09 09:33:34;;;;;;;16.83;13.70;;;17.10;99.90;;;;;;5070059;28;20262;-79
2023/08/09 09:36:01;;;;;;;15.77;11.20;;;17.10;99.90;;;;;;5050222;28;20180;-79
2023/08/09 09:38:27;;;;;;;16.70;11.00;;;17.20;99.90;;;;;;5048440;28;20180;-79
2023/08/09 09:40:52;;;;;;;15.03;10.70;;;17.20;99.90;;;;;;5048271;28;20215;-79
2023/08/09 09:43:18;;;;;;;14.93;9.90;;;17.20;99.90;;;;;;5048008;28;20188;-79
2023/08/09 09:45:44;;;;;;;10.93;7.37;;;17.20;99.90;;;;;;5048250;28;20351;-79
2023/08/09 09:48:16;;;;;;;13.30;7.90;;;17.40;99.90;;;;;;5049753;28;20172;-79
2023/08/09 09:50:43;;;;;;;13.97;8.63;;;17.50;99.90;;;;;;5048441;28;20271;-79
2023/08/09 09:53:13;;;;;;;13.27;10.80;;;17.40;99.90;;;;;;5046721;28;20264;-79
2023/08/09 09:55:40;;;;;;;13.47;7.67;;;17.50;99.90;;;;;;5059678;28;20176;-79
2023/08/09 09:58:06;;;;;;;8.43;5.90;;;17.40;99.90;;;;;;5068242;28;20167;-79
2023/08/09 10:00:32;;;;;;;4.13;3.70;;;17.40;99.90;;;;;;5068289;28;20195;-79
2023/08/09 10:03:04;;;;;;;8.53;4.30;;;17.50;99.90;;;;;;5066860;28;20183;-79
2023/08/09 10:05:35;;;;;;;3.67;3.00;;;17.60;99.90;;;;;;5066146;28;20184;-79
2023/08/09 10:08:04;;;;;;;4.37;3.23;;;17.70;99.90;;;;;;5068974;28;20154;-80
2023/08/09 10:10:31;;;;;;;5.80;2.80;;;17.70;99.90;;;;;;5067168;28;20283;-78
2023/08/09 10:13:00;;;;;;;3.63;2.67;;;17.80;96.10;;;;;;5066385;28;20270;-79
2023/08/09 10:15:35;;;;;;;2.97;2.40;;;18.00;1.00;;;;;;5065355;28;20179;-79
2023/08/09 10:18:10;;;;;;;5.70;2.50;;;18.00;1.00;;;;;;5067585;28;20209;-79
2023/08/09 10:20:38;;;;;;;3.83;2.30;;;18.20;1.00;;;;;;5067589;28;20195;-79
2023/08/09 10:23:04;;;;;;;6.43;2.50;;;18.20;1.00;;;;;;5066055;28;20239;-79
2023/08/09 10:25:50;;;;;;;9.83;4.20;;;18.30;99.90;;;;;;5068730;28;20224;-79
2023/08/09 10:28:17;;;;;;;8.43;5.07;;;18.20;99.90;;;;;;5067765;28;20191;-78
2023/08/09 10:30:51;;;;;;;9.07;5.07;;;18.30;99.90;;;;;;5065920;28;20583;-80
2023/08/09 10:33:19;;;;;;;8.63;5.93;;;18.10;1.00;;;;;;5066270;28;20261;-79
2023/08/09 10:35:54;;;;;;;5.80;4.33;;;18.20;99.90;;;;;;5068547;28;20160;-79
2023/08/09 10:38:32;;;;;;;5.43;4.23;;;18.20;1.00;;;;;;5065520;28;20178;-80
2023/08/09 10:40:59;;;;;;;7.37;3.70;;;18.20;99.90;;;;;;5065307;28;20576;-79
2023/08/09 10:43:26;;;;;;;5.03;3.73;;;18.40;99.90;;;;;;5066272;28;20186;-79
2023/08/09 10:45:56;;;;;;;6.97;4.67;;;18.40;1.00;;;;;;5067125;28;20172;-79
2023/08/09 10:48:27;;;;;;;7.10;5.17;;;18.60;99.90;;;;;;5066424;28;20639;-79
2023/08/09 10:51:11;;;;;;;10.43;5.63;;;18.60;1.00;;;;;;5065315;28;20211;-79
2023/08/09 10:53:57;;;;;;;6.53;4.70;;;18.60;99.90;;;;;;5067958;28;20167;-78
2023/08/09 10:56:43;;;;;;;6.17;3.80;;;18.60;1.00;;;;;;5066565;28;20179;-79
2023/08/09 10:59:14;;;;;;;5.23;3.20;;;18.70;1.00;;;;;;5066677;28;20167;-79
2023/08/09 11:01:41;;;;;;;8.20;4.00;;;18.70;99.90;;;;;;5065677;28;20199;-78
2023/08/09 11:04:09;;;;;;;7.60;3.20;;;18.70;1.00;;;;;;5067569;28;20167;-79
2023/08/09 11:06:37;;;;;;;4.23;2.87;;;18.80;1.00;;;;;;5066049;28;20229;-79
2023/08/09 11:09:14;;;;;;;5.30;2.90;;;18.90;99.90;;;;;;5067417;28;20168;-79
2023/08/09 11:11:41;;;;;;;8.83;2.57;;;18.90;99.90;;;;;;5061750;28;20214;-79
2023/08/09 11:14:08;;;;;;;3.33;2.30;;;18.90;99.90;;;;;;5064853;28;20179;-79
2023/08/09 11:16:34;;;;;;;6.10;2.77;;;18.80;1.00;;;;;;5066530;28;20312;-80
2023/08/09 11:19:05;;;;;;;8.33;2.27;;;18.90;1.00;;;;;;5068617;28;20176;-79
2023/08/09 11:21:37;;;;;;;6.40;2.70;;;19.00;1.00;;;;;;5069182;28;20187;-78
2023/08/09 11:24:03;;;;;;;3.80;2.07;;;18.90;1.00;;;;;;5068464;28;20179;-79
2023/08/09 11:26:29;;;;;;;6.40;2.50;;;18.80;1.00;;;;;;5051830;28;20195;-79
2023/08/09 11:28:54;;;;;;;5.10;2.27;;;18.80;97.30;;;;;;5046001;28;20204;-80
2023/08/09 11:31:20;;;;;;;4.70;2.27;;;18.80;99.90;;;;;;5044613;28;20215;-80
2023/08/09 11:33:45;;;;;;;6.40;2.30;;;18.80;99.90;;;;;;5047355;28;20176;-79
2023/08/09 11:36:11;;;;;;;4.33;2.73;;;18.90;99.90;;;;;;5045782;28;20195;-79
2023/08/09 11:38:37;;;;;;;4.07;2.57;;;19.00;1.00;;;;;;5046653;28;20672;-80
2023/08/09 11:41:02;;;;;;;4.47;2.40;;;19.00;83.60;;;;;;5062128;28;20598;-80
2023/08/09 11:43:28;;;;;;;6.57;2.30;;;19.00;99.90;;;;;;5046148;28;20177;-79
2023/08/09 11:45:55;;;;;;;4.17;2.00;;;19.00;46.20;;;;;;5045382;28;20211;-79
2023/08/09 11:48:36;;;;;;;4.27;2.40;;;18.90;1.00;;;;;;5046798;28;20177;-79
2023/08/09 11:51:07;;;;;;;4.10;1.90;;;19.10;99.90;;;;;;5047156;28;20199;-79
2023/08/09 11:53:35;;;;;;;2.13;1.60;;;19.20;1.00;;;;;;5046793;28;20159;-79
2023/08/09 11:56:02;;;;;;;3.87;1.90;;;19.30;1.00;;;;;;5046742;28;20177;-80
2023/08/09 11:58:27;;;;;;;2.83;1.83;;;19.40;1.00;;;;;;5056911;28;20183;-80
2023/08/09 12:00:53;;;;;;;3.73;1.83;;;19.50;30.70;;;;;;5053694;28;20211;-80
2023/08/09 12:03:22;;;;;;;2.07;1.60;;;19.40;1.00;;;;;;5040093;28;20179;-80
2023/08/09 12:05:52;;;;;;;2.63;1.50;;;19.30;1.00;;;;;;5041973;28;20341;-80
2023/08/09 12:08:30;;;;;;;3.80;1.60;;;19.30;1.00;;;;;;5059406;28;20168;-80
2023/08/09 12:10:55;;;;;;;2.60;1.80;;;19.50;1.00;;;;;;5057923;28;20620;-80
2023/08/09 12:13:22;;;;;;;2.43;1.50;;;19.60;85.90;;;;;;5056959;28;20178;-80
2023/08/09 12:15:47;;;;;;;2.60;1.63;;;19.50;1.00;;;;;;5057555;28;20180;-79
2023/08/09 12:18:13;;;;;;;1.60;1.37;;;19.60;1.00;;;;;;5058980;28;20227;-80
2023/08/09 12:20:38;;;;;;;3.37;1.50;;;19.60;99.90;;;;;;5054546;28;20199;-79
2023/08/09 12:23:03;;;;;;;3.63;1.47;;;19.80;12.00;;;;;;5038906;28;20351;-79
2023/08/09 12:25:29;;;;;;;2.77;1.40;;;19.80;1.00;;;;;;5036405;28;20282;-78
2023/08/09 12:27:55;;;;;;;3.43;1.50;;;19.90;1.00;;;;;;5037795;28;20188;-79
2023/08/09 12:30:20;;;;;;;3.73;1.30;;;19.70;99.90;;;;;;5039919;28;20579;-80
2023/08/09 12:32:46;;;;;;;3.60;1.27;;;19.80;1.00;;;;;;5046712;28;20221;-79
2023/08/09 12:35:11;;;;;;;3.03;1.67;;;19.90;1.00;;;;;;5050227;28;20184;-80
2023/08/09 12:37:37;;;;;;;4.07;1.37;;;19.90;1.00;;;;;;5038522;28;20551;-80
2023/08/09 12:40:05;;;;;;;2.90;1.33;;;20.00;1.00;;;;;;5047714;28;20620;-79
2023/08/09 12:42:31;;;;;;;4.70;1.90;;;20.00;99.90;;;;;;5049255;28;20183;-79